sensor_id;sensor_type;location;lat;lon;timestamp;temperature;humidity
41116;DHT22;26861;51.824;4.682;2023-04-01T00:00:20;16.90;59.80
41116;DHT22;26861;51.824;4.682;2023-04-01T00:02:46;16.90;60.00
41116;DHT22;26861;51.824;4.682;2023-04-01T00:05:13;16.90;59.80
41116;DHT22;26861;51.824;4.682;2023-04-01T00:07:40;16.90;59.80
41116;DHT22;26861;51.824;4.682;2023-04-01T00:10:07;16.90;59.70
41116;DHT22;26861;51.824;4.682;2023-04-01T00:12:33;16.90;59.70
41116;DHT22;26861;51.824;4.682;2023-04-01T00:14:59;16.90;59.70
41116;DHT22;26861;51.824;4.682;2023-04-01T00:17:24;16.90;59.80
41116;DHT22;26861;51.824;4.682;2023-04-01T00:19:50;16.90;59.80
41116;DHT22;26861;51.824;4.682;2023-04-01T00:22:16;16.90;59.70
41116;DHT22;26861;51.824;4.682;2023-04-01T00:24:42;16.90;59.70
41116;DHT22;26861;51.824;4.682;2023-04-01T00:27:07;16.90;59.60
41116;DHT22;26861;51.824;4.682;2023-04-01T00:29:34;16.80;59.60
41116;DHT22;26861;51.824;4.682;2023-04-01T00:32:00;16.90;59.60
41116;DHT22;26861;51.824;4.682;2023-04-01T00:34:26;16.80;59.60
41116;DHT22;26861;51.824;4.682;2023-04-01T00:36:53;16.80;59.60
41116;DHT22;26861;51.824;4.682;2023-04-01T00:39:22;16.90;59.70
41116;DHT22;26861;51.824;4.682;2023-04-01T00:41:48;16.80;59.60
41116;DHT22;26861;51.824;4.682;2023-04-01T00:44:19;16.80;59.70
41116;DHT22;26861;51.824;4.682;2023-04-01T00:46:45;16.80;59.70
41116;DHT22;26861;51.824;4.682;2023-04-01T00:49:12;16.80;59.70
41116;DHT22;26861;51.824;4.682;2023-04-01T00:51:40;16.80;59.80
41116;DHT22;26861;51.824;4.682;2023-04-01T00:54:09;16.80;59.90
41116;DHT22;26861;51.824;4.682;2023-04-01T00:56:37;16.80;59.70
41116;DHT22;26861;51.824;4.682;2023-04-01T00:59:15;16.80;59.80
41116;DHT22;26861;51.824;4.682;2023-04-01T01:01:42;16.70;59.80
41116;DHT22;26861;51.824;4.682;2023-04-01T01:04:21;16.80;60.50
41116;DHT22;26861;51.824;4.682;2023-04-01T01:09:45;16.80;59.70
41116;DHT22;26861;51.824;4.682;2023-04-01T01:12:21;16.70;59.70
41116;DHT22;26861;51.824;4.682;2023-04-01T01:15:06;16.70;59.60
41116;DHT22;26861;51.824;4.682;2023-04-01T01:20:56;16.70;59.70
41116;DHT22;26861;51.824;4.682;2023-04-01T01:37:22;16.70;59.70
41116;DHT22;26861;51.824;4.682;2023-04-01T01:39:53;16.70;59.70
41116;DHT22;26861;51.824;4.682;2023-04-01T01:42:20;16.70;59.70
41116;DHT22;26861;51.824;4.682;2023-04-01T01:44:49;16.70;59.70
41116;DHT22;26861;51.824;4.682;2023-04-01T01:47:16;16.60;59.70
41116;DHT22;26861;51.824;4.682;2023-04-01T01:49:43;16.60;60.40
41116;DHT22;26861;51.824;4.682;2023-04-01T01:52:11;16.60;59.70
41116;DHT22;26861;51.824;4.682;2023-04-01T01:54:50;16.60;59.70
41116;DHT22;26861;51.824;4.682;2023-04-01T01:57:19;16.60;59.80
41116;DHT22;26861;51.824;4.682;2023-04-01T01:59:47;16.60;59.80
41116;DHT22;26861;51.824;4.682;2023-04-01T02:02:14;16.60;59.70
41116;DHT22;26861;51.824;4.682;2023-04-01T02:04:42;16.60;59.80
41116;DHT22;26861;51.824;4.682;2023-04-01T02:07:20;16.60;59.80
41116;DHT22;26861;51.824;4.682;2023-04-01T02:09:47;16.50;59.70
41116;DHT22;26861;51.824;4.682;2023-04-01T02:12:15;16.50;59.70
41116;DHT22;26861;51.824;4.682;2023-04-01T02:15:05;16.50;59.80
41116;DHT22;26861;51.824;4.682;2023-04-01T02:17:32;16.50;59.70
41116;DHT22;26861;51.824;4.682;2023-04-01T02:20:19;16.50;59.70
41116;DHT22;26861;51.824;4.682;2023-04-01T02:22:52;16.50;59.70
41116;DHT22;26861;51.824;4.682;2023-04-01T02:25:22;16.50;59.80
41116;DHT22;26861;51.824;4.682;2023-04-01T02:27:48;16.50;59.70
41116;DHT22;26861;51.824;4.682;2023-04-01T02:30:16;16.50;59.80
41116;DHT22;26861;51.824;4.682;2023-04-01T02:32:42;16.40;59.80
41116;DHT22;26861;51.824;4.682;2023-04-01T02:35:10;16.40;59.80
41116;DHT22;26861;51.824;4.682;2023-04-01T02:37:38;16.40;59.80
41116;DHT22;26861;51.824;4.682;2023-04-01T02:40:08;16.40;59.80
41116;DHT22;26861;51.824;4.682;2023-04-01T02:42:35;16.40;59.80
41116;DHT22;26861;51.824;4.682;2023-04-01T02:45:01;16.40;59.80
41116;DHT22;26861;51.824;4.682;2023-04-01T02:47:27;16.40;59.80
41116;DHT22;26861;51.824;4.682;2023-04-01T02:49:52;16.40;59.80
41116;DHT22;26861;51.824;4.682;2023-04-01T02:52:27;16.40;59.80
41116;DHT22;26861;51.824;4.682;2023-04-01T02:54:53;16.40;59.80
41116;DHT22;26861;51.824;4.682;2023-04-01T02:57:19;16.40;59.80
41116;DHT22;26861;51.824;4.682;2023-04-01T02:59:45;16.40;59.90
41116;DHT22;26861;51.824;4.682;2023-04-01T03:02:11;16.40;59.90
41116;DHT22;26861;51.824;4.682;2023-04-01T03:04:36;16.40;59.90
41116;DHT22;26861;51.824;4.682;2023-04-01T03:07:02;16.30;59.80
41116;DHT22;26861;51.824;4.682;2023-04-01T03:09:28;16.30;59.80
41116;DHT22;26861;51.824;4.682;2023-04-01T03:11:54;16.40;59.90
41116;DHT22;26861;51.824;4.682;2023-04-01T03:14:20;16.40;68.80
41116;DHT22;26861;51.824;4.682;2023-04-01T03:16:45;16.30;59.90
41116;DHT22;26861;51.824;4.682;2023-04-01T03:19:11;16.40;59.90
41116;DHT22;26861;51.824;4.682;2023-04-01T03:21:36;16.40;59.80
41116;DHT22;26861;51.824;4.682;2023-04-01T03:24:02;16.30;59.80
41116;DHT22;26861;51.824;4.682;2023-04-01T03:26:28;16.30;59.80
41116;DHT22;26861;51.824;4.682;2023-04-01T03:28:54;16.30;59.90
41116;DHT22;26861;51.824;4.682;2023-04-01T03:31:20;16.30;60.00
41116;DHT22;26861;51.824;4.682;2023-04-01T03:33:46;16.30;59.90
41116;DHT22;26861;51.824;4.682;2023-04-01T03:36:12;16.40;59.90
41116;DHT22;26861;51.824;4.682;2023-04-01T03:38:42;16.30;59.90
41116;DHT22;26861;51.824;4.682;2023-04-01T03:41:14;16.30;60.00
41116;DHT22;26861;51.824;4.682;2023-04-01T03:43:40;16.30;59.90
41116;DHT22;26861;51.824;4.682;2023-04-01T03:46:05;16.30;59.80
41116;DHT22;26861;51.824;4.682;2023-04-01T03:48:31;16.30;59.80
41116;DHT22;26861;51.824;4.682;2023-04-01T03:50:57;16.30;59.90
41116;DHT22;26861;51.824;4.682;2023-04-01T03:53:23;16.30;59.90
41116;DHT22;26861;51.824;4.682;2023-04-01T03:55:49;16.30;59.90
41116;DHT22;26861;51.824;4.682;2023-04-01T03:58:17;16.30;59.90
41116;DHT22;26861;51.824;4.682;2023-04-01T04:00:43;16.20;59.90
41116;DHT22;26861;51.824;4.682;2023-04-01T04:03:08;16.30;60.00
41116;DHT22;26861;51.824;4.682;2023-04-01T04:05:34;16.20;59.90
41116;DHT22;26861;51.824;4.682;2023-04-01T04:07:59;16.20;59.90
41116;DHT22;26861;51.824;4.682;2023-04-01T04:10:25;16.20;60.00
41116;DHT22;26861;51.824;4.682;2023-04-01T04:12:51;16.20;59.90
41116;DHT22;26861;51.824;4.682;2023-04-01T04:15:17;16.20;59.90
41116;DHT22;26861;51.824;4.682;2023-04-01T04:17:47;16.20;59.90
41116;DHT22;26861;51.824;4.682;2023-04-01T04:20:13;16.20;59.80
41116;DHT22;26861;51.824;4.682;2023-04-01T04:22:38;16.20;59.90
41116;DHT22;26861;51.824;4.682;2023-04-01T04:25:04;16.20;59.90
41116;DHT22;26861;51.824;4.682;2023-04-01T04:27:31;16.20;59.90
41116;DHT22;26861;51.824;4.682;2023-04-01T04:29:56;16.20;59.90
41116;DHT22;26861;51.824;4.682;2023-04-01T04:32:22;16.20;59.90
41116;DHT22;26861;51.824;4.682;2023-04-01T04:34:47;16.20;60.50
41116;DHT22;26861;51.824;4.682;2023-04-01T04:37:13;16.20;59.80
41116;DHT22;26861;51.824;4.682;2023-04-01T04:39:38;16.20;59.90
41116;DHT22;26861;51.824;4.682;2023-04-01T04:42:05;16.20;59.90
41116;DHT22;26861;51.824;4.682;2023-04-01T04:44:31;16.20;59.90
41116;DHT22;26861;51.824;4.682;2023-04-01T04:46:56;16.20;59.80
41116;DHT22;26861;51.824;4.682;2023-04-01T04:49:22;16.20;59.90
41116;DHT22;26861;51.824;4.682;2023-04-01T04:51:47;16.20;59.90
41116;DHT22;26861;51.824;4.682;2023-04-01T04:54:13;16.20;59.90
41116;DHT22;26861;51.824;4.682;2023-04-01T04:56:39;16.10;59.90
41116;DHT22;26861;51.824;4.682;2023-04-01T04:59:05;16.20;59.90
41116;DHT22;26861;51.824;4.682;2023-04-01T05:01:30;16.10;59.90
41116;DHT22;26861;51.824;4.682;2023-04-01T05:03:56;16.20;60.60
41116;DHT22;26861;51.824;4.682;2023-04-01T05:06:22;16.20;60.00
41116;DHT22;26861;51.824;4.682;2023-04-01T05:08:48;16.10;59.90
41116;DHT22;26861;51.824;4.682;2023-04-01T05:11:18;16.10;59.90
41116;DHT22;26861;51.824;4.682;2023-04-01T05:13:46;16.10;60.00
41116;DHT22;26861;51.824;4.682;2023-04-01T05:16:16;16.10;60.00
41116;DHT22;26861;51.824;4.682;2023-04-01T05:18:42;16.10;60.00
41116;DHT22;26861;51.824;4.682;2023-04-01T05:21:10;16.10;60.00
41116;DHT22;26861;51.824;4.682;2023-04-01T05:23:37;16.10;60.00
41116;DHT22;26861;51.824;4.682;2023-04-01T05:26:05;16.10;60.00
41116;DHT22;26861;51.824;4.682;2023-04-01T05:28:32;16.10;60.00
41116;DHT22;26861;51.824;4.682;2023-04-01T05:30:59;16.10;59.90
41116;DHT22;26861;51.824;4.682;2023-04-01T05:33:27;16.10;60.00
41116;DHT22;26861;51.824;4.682;2023-04-01T05:35:53;16.10;60.10
41116;DHT22;26861;51.824;4.682;2023-04-01T05:38:20;16.10;60.20
41116;DHT22;26861;51.824;4.682;2023-04-01T05:40:46;16.10;60.20
41116;DHT22;26861;51.824;4.682;2023-04-01T05:43:12;16.10;60.20
41116;DHT22;26861;51.824;4.682;2023-04-01T05:45:38;16.20;60.20
41116;DHT22;26861;51.824;4.682;2023-04-01T05:48:04;16.20;60.20
41116;DHT22;26861;51.824;4.682;2023-04-01T05:50:31;16.20;60.30
41116;DHT22;26861;51.824;4.682;2023-04-01T05:52:57;16.20;60.40
41116;DHT22;26861;51.824;4.682;2023-04-01T05:55:23;16.20;60.50
41116;DHT22;26861;51.824;4.682;2023-04-01T05:57:49;16.20;60.50
41116;DHT22;26861;51.824;4.682;2023-04-01T06:00:16;16.30;60.70
41116;DHT22;26861;51.824;4.682;2023-04-01T06:02:42;16.20;60.60
41116;DHT22;26861;51.824;4.682;2023-04-01T06:05:18;16.30;60.80
41116;DHT22;26861;51.824;4.682;2023-04-01T06:07:45;16.20;60.80
41116;DHT22;26861;51.824;4.682;2023-04-01T06:10:19;16.30;60.90
41116;DHT22;26861;51.824;4.682;2023-04-01T06:18:26;16.20;60.90
41116;DHT22;26861;51.824;4.682;2023-04-01T06:34:34;16.30;60.80
41116;DHT22;26861;51.824;4.682;2023-04-01T06:48:02;16.20;60.70
41116;DHT22;26861;51.824;4.682;2023-04-01T06:56:12;16.30;60.70
41116;DHT22;26861;51.824;4.682;2023-04-01T06:58:48;16.30;60.70
41116;DHT22;26861;51.824;4.682;2023-04-01T07:01:48;16.30;60.80
41116;DHT22;26861;51.824;4.682;2023-04-01T07:04:19;16.20;60.80
41116;DHT22;26861;51.824;4.682;2023-04-01T07:07:05;16.20;60.90
41116;DHT22;26861;51.824;4.682;2023-04-01T07:09:39;16.20;60.90
41116;DHT22;26861;51.824;4.682;2023-04-01T07:15:09;16.20;61.00
41116;DHT22;26861;51.824;4.682;2023-04-01T07:17:39;16.20;61.10
41116;DHT22;26861;51.824;4.682;2023-04-01T07:20:23;16.20;61.00
41116;DHT22;26861;51.824;4.682;2023-04-01T07:23:02;16.10;61.00
41116;DHT22;26861;51.824;4.682;2023-04-01T07:25:48;16.20;61.00
41116;DHT22;26861;51.824;4.682;2023-04-01T07:28:17;16.20;60.80
41116;DHT22;26861;51.824;4.682;2023-04-01T07:33:58;16.20;60.80
41116;DHT22;26861;51.824;4.682;2023-04-01T07:36:38;16.20;60.80
41116;DHT22;26861;51.824;4.682;2023-04-01T07:44:32;16.20;60.70
41116;DHT22;26861;51.824;4.682;2023-04-01T07:50:05;16.20;60.60
41116;DHT22;26861;51.824;4.682;2023-04-01T07:58:06;16.20;60.60
41116;DHT22;26861;51.824;4.682;2023-04-01T08:06:06;16.20;60.60
41116;DHT22;26861;51.824;4.682;2023-04-01T08:08:57;16.20;60.80
41116;DHT22;26861;51.824;4.682;2023-04-01T08:11:32;16.20;60.90
41116;DHT22;26861;51.824;4.682;2023-04-01T08:17:40;16.10;61.00
41116;DHT22;26861;51.824;4.682;2023-04-01T08:20:28;16.20;61.20
41116;DHT22;26861;51.824;4.682;2023-04-01T08:26:01;16.20;61.10
41116;DHT22;26861;51.824;4.682;2023-04-01T08:28:29;16.20;61.10
41116;DHT22;26861;51.824;4.682;2023-04-01T08:31:13;16.20;61.10
41116;DHT22;26861;51.824;4.682;2023-04-01T08:33:42;16.20;61.80
41116;DHT22;26861;51.824;4.682;2023-04-01T08:36:29;16.20;61.10
41116;DHT22;26861;51.824;4.682;2023-04-01T09:10:08;16.30;61.30
41116;DHT22;26861;51.824;4.682;2023-04-01T09:18:12;16.30;61.40
41116;DHT22;26861;51.824;4.682;2023-04-01T09:20:52;16.30;61.30
41116;DHT22;26861;51.824;4.682;2023-04-01T09:26:59;16.30;61.50
41116;DHT22;26861;51.824;4.682;2023-04-01T09:35:10;16.30;61.40
41116;DHT22;26861;51.824;4.682;2023-04-01T09:38:12;16.30;61.40
41116;DHT22;26861;51.824;4.682;2023-04-01T09:43:27;16.30;61.40
41116;DHT22;26861;51.824;4.682;2023-04-01T09:48:42;16.30;61.40
41116;DHT22;26861;51.824;4.682;2023-04-01T10:08:19;16.30;61.50
41116;DHT22;26861;51.824;4.682;2023-04-01T10:30:37;16.30;61.60
41116;DHT22;26861;51.824;4.682;2023-04-01T10:49:37;16.40;61.60
41116;DHT22;26861;51.824;4.682;2023-04-01T11:08:47;16.40;61.60
41116;DHT22;26861;51.824;4.682;2023-04-01T11:19:50;16.40;61.70
41116;DHT22;26861;51.824;4.682;2023-04-01T11:28:42;16.50;61.80
41116;DHT22;26861;51.824;4.682;2023-04-01T11:39:59;16.40;61.80
41116;DHT22;26861;51.824;4.682;2023-04-01T11:42:46;16.50;61.80
41116;DHT22;26861;51.824;4.682;2023-04-01T12:05:04;16.50;62.30
41116;DHT22;26861;51.824;4.682;2023-04-01T12:13:04;16.50;62.50
41116;DHT22;26861;51.824;4.682;2023-04-01T12:20:50;16.50;62.50
41116;DHT22;26861;51.824;4.682;2023-04-01T12:29:35;16.50;62.70
41116;DHT22;26861;51.824;4.682;2023-04-01T12:46:19;16.50;62.70
41116;DHT22;26861;51.824;4.682;2023-04-01T12:49:06;16.50;62.70
41116;DHT22;26861;51.824;4.682;2023-04-01T12:54:53;16.50;62.70
41116;DHT22;26861;51.824;4.682;2023-04-01T13:06:44;16.50;63.00
41116;DHT22;26861;51.824;4.682;2023-04-01T13:23:20;16.50;62.90
41116;DHT22;26861;51.824;4.682;2023-04-01T13:26:22;16.50;62.70
41116;DHT22;26861;51.824;4.682;2023-04-01T13:31:37;16.50;62.80
41116;DHT22;26861;51.824;4.682;2023-04-01T13:42:29;16.50;62.80
41116;DHT22;26861;51.824;4.682;2023-04-01T13:48:14;16.50;62.80
41116;DHT22;26861;51.824;4.682;2023-04-01T13:51:12;16.60;62.80
41116;DHT22;26861;51.824;4.682;2023-04-01T13:54:03;16.50;62.90
41116;DHT22;26861;51.824;4.682;2023-04-01T13:56:43;16.50;62.90
41116;DHT22;26861;51.824;4.682;2023-04-01T14:05:54;16.60;62.80
41116;DHT22;26861;51.824;4.682;2023-04-01T14:10:47;16.50;63.00
41116;DHT22;26861;51.824;4.682;2023-04-01T14:24:09;16.60;63.00
41116;DHT22;26861;51.824;4.682;2023-04-01T14:35:27;16.60;63.40
41116;DHT22;26861;51.824;4.682;2023-04-01T14:46:48;16.60;63.30
41116;DHT22;26861;51.824;4.682;2023-04-01T14:49:39;16.50;63.20
41116;DHT22;26861;51.824;4.682;2023-04-01T14:54:44;16.60;63.30
41116;DHT22;26861;51.824;4.682;2023-04-01T14:57:15;16.50;63.10
41116;DHT22;26861;51.824;4.682;2023-04-01T15:00:07;16.60;63.20
41116;DHT22;26861;51.824;4.682;2023-04-01T15:24:35;16.50;63.00
41116;DHT22;26861;51.824;4.682;2023-04-01T15:38:26;16.60;63.00
41116;DHT22;26861;51.824;4.682;2023-04-01T15:43:40;16.50;63.20
41116;DHT22;26861;51.824;4.682;2023-04-01T15:52:23;16.50;63.50
41116;DHT22;26861;51.824;4.682;2023-04-01T15:55:17;16.50;63.40
41116;DHT22;26861;51.824;4.682;2023-04-01T15:58:01;16.50;63.40
41116;DHT22;26861;51.824;4.682;2023-04-01T16:00:31;16.50;63.30
41116;DHT22;26861;51.824;4.682;2023-04-01T16:03:15;16.50;63.20
41116;DHT22;26861;51.824;4.682;2023-04-01T16:09:02;16.50;63.40
41116;DHT22;26861;51.824;4.682;2023-04-01T16:11:53;16.50;63.30
41116;DHT22;26861;51.824;4.682;2023-04-01T16:20:20;16.50;63.10
41116;DHT22;26861;51.824;4.682;2023-04-01T16:23:02;16.50;63.10
41116;DHT22;26861;51.824;4.682;2023-04-01T16:25:33;16.50;63.10
41116;DHT22;26861;51.824;4.682;2023-04-01T16:33:43;16.50;63.10
41116;DHT22;26861;51.824;4.682;2023-04-01T16:36:29;16.50;63.10
41116;DHT22;26861;51.824;4.682;2023-04-01T16:39:27;16.50;63.00
41116;DHT22;26861;51.824;4.682;2023-04-01T16:45:01;16.50;62.90
41116;DHT22;26861;51.824;4.682;2023-04-01T16:47:35;16.50;63.00
41116;DHT22;26861;51.824;4.682;2023-04-01T16:50:21;16.50;63.00
41116;DHT22;26861;51.824;4.682;2023-04-01T16:55:19;16.60;62.90
41116;DHT22;26861;51.824;4.682;2023-04-01T16:57:56;16.60;62.90
41116;DHT22;26861;51.824;4.682;2023-04-01T17:00:37;16.50;62.80
41116;DHT22;26861;51.824;4.682;2023-04-01T17:11:31;16.50;62.90
41116;DHT22;26861;51.824;4.682;2023-04-01T17:23:01;16.50;62.80
41116;DHT22;26861;51.824;4.682;2023-04-01T17:36:26;16.50;62.70
41116;DHT22;26861;51.824;4.682;2023-04-01T17:44:19;16.50;62.60
41116;DHT22;26861;51.824;4.682;2023-04-01T17:50:24;16.40;62.50
41116;DHT22;26861;51.824;4.682;2023-04-01T18:03:12;16.40;62.50
41116;DHT22;26861;51.824;4.682;2023-04-01T18:05:48;16.40;62.40
41116;DHT22;26861;51.824;4.682;2023-04-01T18:17:12;16.30;62.30
41116;DHT22;26861;51.824;4.682;2023-04-01T18:27:42;16.30;62.20
41116;DHT22;26861;51.824;4.682;2023-04-01T18:32:57;16.30;62.20
41116;DHT22;26861;51.824;4.682;2023-04-01T18:35:53;16.30;62.20
41116;DHT22;26861;51.824;4.682;2023-04-01T18:38:33;16.30;62.20
41116;DHT22;26861;51.824;4.682;2023-04-01T18:44:43;16.30;62.20
41116;DHT22;26861;51.824;4.682;2023-04-01T18:47:36;16.20;62.70
41116;DHT22;26861;51.824;4.682;2023-04-01T18:55:47;16.30;62.70
41116;DHT22;26861;51.824;4.682;2023-04-01T19:01:16;16.30;62.50
41116;DHT22;26861;51.824;4.682;2023-04-01T19:06:35;16.20;62.30
41116;DHT22;26861;51.824;4.682;2023-04-01T19:09:17;16.20;62.30
41116;DHT22;26861;51.824;4.682;2023-04-01T19:17:45;16.30;63.20
41116;DHT22;26861;51.824;4.682;2023-04-01T19:26:34;16.30;62.70
41116;DHT22;26861;51.824;4.682;2023-04-01T19:32:14;16.20;62.70
41116;DHT22;26861;51.824;4.682;2023-04-01T19:45:32;16.20;62.80
41116;DHT22;26861;51.824;4.682;2023-04-01T19:48:09;16.20;62.80
41116;DHT22;26861;51.824;4.682;2023-04-01T19:50:54;16.30;63.00
41116;DHT22;26861;51.824;4.682;2023-04-01T19:59:18;16.30;63.00
41116;DHT22;26861;51.824;4.682;2023-04-01T20:04:45;16.40;63.00
41116;DHT22;26861;51.824;4.682;2023-04-01T20:07:21;16.40;63.00
41116;DHT22;26861;51.824;4.682;2023-04-01T20:18:01;16.50;63.20
41116;DHT22;26861;51.824;4.682;2023-04-01T20:20:28;16.50;63.20
41116;DHT22;26861;51.824;4.682;2023-04-01T20:22:59;16.50;63.20
41116;DHT22;26861;51.824;4.682;2023-04-01T20:34:55;16.50;63.10
41116;DHT22;26861;51.824;4.682;2023-04-01T20:37:35;16.50;62.90
41116;DHT22;26861;51.824;4.682;2023-04-01T20:43:20;16.60;63.00
41116;DHT22;26861;51.824;4.682;2023-04-01T20:49:20;16.60;63.00
41116;DHT22;26861;51.824;4.682;2023-04-01T20:52:00;16.60;62.70
41116;DHT22;26861;51.824;4.682;2023-04-01T21:00:19;16.60;62.80
41116;DHT22;26861;51.824;4.682;2023-04-01T21:06:09;16.60;62.90
41116;DHT22;26861;51.824;4.682;2023-04-01T21:26:39;16.70;62.80
41116;DHT22;26861;51.824;4.682;2023-04-01T21:48:53;16.70;62.50
41116;DHT22;26861;51.824;4.682;2023-04-01T22:00:17;16.70;62.80
41116;DHT22;26861;51.824;4.682;2023-04-01T22:06:08;16.70;62.80
41116;DHT22;26861;51.824;4.682;2023-04-01T22:17:04;16.70;63.00
41116;DHT22;26861;51.824;4.682;2023-04-01T22:30:28;16.70;63.20
41116;DHT22;26861;51.824;4.682;2023-04-01T22:36:02;16.70;63.00
41116;DHT22;26861;51.824;4.682;2023-04-01T22:43:58;16.70;62.80
41116;DHT22;26861;51.824;4.682;2023-04-01T22:49:28;16.70;62.50
41116;DHT22;26861;51.824;4.682;2023-04-01T22:54:52;16.70;62.80
41116;DHT22;26861;51.824;4.682;2023-04-01T22:58:08;16.60;62.50
41116;DHT22;26861;51.824;4.682;2023-04-01T23:00:30;16.60;62.80
41116;DHT22;26861;51.824;4.682;2023-04-01T23:05:28;16.60;62.40
41116;DHT22;26861;51.824;4.682;2023-04-01T23:10:51;16.60;62.50
41116;DHT22;26861;51.824;4.682;2023-04-01T23:13:24;16.60;62.50
41116;DHT22;26861;51.824;4.682;2023-04-01T23:15:53;16.60;62.40
41116;DHT22;26861;51.824;4.682;2023-04-01T23:18:44;16.70;62.70
41116;DHT22;26861;51.824;4.682;2023-04-01T23:21:23;16.60;62.70
41116;DHT22;26861;51.824;4.682;2023-04-01T23:26:39;16.60;62.60
41116;DHT22;26861;51.824;4.682;2023-04-01T23:29:13;16.60;62.70
41116;DHT22;26861;51.824;4.682;2023-04-01T23:32:13;16.60;62.70
41116;DHT22;26861;51.824;4.682;2023-04-01T23:34:34;16.60;62.50
41116;DHT22;26861;51.824;4.682;2023-04-01T23:37:08;16.60;62.60
41116;DHT22;26861;51.824;4.682;2023-04-01T23:39:41;16.60;62.40
41116;DHT22;26861;51.824;4.682;2023-04-01T23:42:23;16.60;62.50
41116;DHT22;26861;51.824;4.682;2023-04-01T23:44:53;16.60;62.50
41116;DHT22;26861;51.824;4.682;2023-04-01T23:47:35;16.60;63.10
41116;DHT22;26861;51.824;4.682;2023-04-01T23:50:17;16.60;62.10
41116;DHT22;26861;51.824;4.682;2023-04-01T23:52:51;16.60;62.40
41116;DHT22;26861;51.824;4.682;2023-04-01T23:55:41;16.60;62.10
41116;DHT22;26861;51.824;4.682;2023-04-01T23:58:24;16.60;62.50
